createdAt,value
2023-03-27T00:01:14.974Z,13.38
2023-03-27T00:03:42.946Z,16.45
2023-03-27T00:06:19.875Z,13.52
2023-03-27T00:08:52.142Z,13.52
2023-03-27T00:11:20.302Z,12.40
2023-03-27T00:13:51.178Z,11.68
2023-03-27T00:16:23.666Z,12.60
2023-03-27T00:18:50.472Z,15.15
2023-03-27T00:21:17.287Z,17.67
2023-03-27T00:23:43.880Z,16.05
2023-03-27T00:26:12.096Z,13.55
2023-03-27T00:28:38.977Z,15.70
2023-03-27T00:31:11.627Z,14.15
2023-03-27T00:33:38.397Z,17.17
2023-03-27T00:36:06.229Z,14.98
2023-03-27T00:38:34.012Z,11.65
2023-03-27T00:41:01.316Z,17.10
2023-03-27T00:43:34.100Z,15.05
2023-03-27T00:46:08.076Z,16.77
2023-03-27T00:48:39.398Z,17.58
2023-03-27T00:51:06.976Z,17.98
2023-03-27T00:53:33.764Z,19.90
2023-03-27T00:56:07.274Z,17.33
2023-03-27T00:58:39.706Z,17.42
2023-03-27T01:01:09.393Z,20.58
2023-03-27T01:03:36.531Z,17.60
2023-03-27T01:06:04.423Z,18.55
2023-03-27T01:08:37.094Z,17.83
2023-03-27T01:11:28.167Z,16.60
2023-03-27T01:14:15.769Z,16.88
2023-03-27T01:17:02.547Z,17.98
2023-03-27T01:19:47.497Z,16.55
2023-03-27T01:22:41.956Z,17.02
2023-03-27T01:25:33.067Z,16.77
2023-03-27T01:28:38.210Z,15.27
2023-03-27T01:31:33.522Z,17.48
2023-03-27T01:34:29.374Z,15.50
2023-03-27T01:37:14.736Z,20.02
2023-03-27T01:39:50.724Z,23.92
2023-03-27T01:42:32.697Z,16.63
2023-03-27T01:45:17.055Z,18.05
2023-03-27T01:47:57.821Z,20.33
2023-03-27T01:50:34.687Z,17.92
2023-03-27T01:53:07.440Z,21.63
2023-03-27T01:55:40.094Z,21.33
2023-03-27T01:58:14.067Z,19.95
2023-03-27T02:01:03.677Z,22.58
2023-03-27T02:03:33.779Z,20.75
2023-03-27T02:06:06.766Z,19.35
2023-03-27T02:08:58.973Z,17.55
2023-03-27T02:11:29.720Z,17.67
2023-03-27T02:14:10.172Z,21.00
2023-03-27T02:16:42.658Z,17.88
2023-03-27T02:19:22.307Z,21.52
2023-03-27T02:21:51.707Z,18.52
2023-03-27T02:24:19.094Z,19.60
2023-03-27T02:26:52.581Z,18.35
2023-03-27T02:29:47.166Z,19.98
2023-03-27T02:32:34.368Z,23.88
2023-03-27T02:35:30.310Z,20.10
2023-03-27T02:38:09.260Z,21.38
2023-03-27T02:40:56.176Z,18.17
2023-03-27T02:43:34.773Z,20.55
2023-03-27T02:46:16.186Z,21.60
2023-03-27T02:48:50.335Z,19.52
2023-03-27T02:51:31.106Z,17.63
2023-03-27T02:54:05.288Z,18.08
2023-03-27T02:56:38.586Z,18.23
2023-03-27T02:59:13.284Z,18.00
2023-03-27T03:01:45.467Z,19.58
2023-03-27T03:04:18.727Z,18.08
2023-03-27T03:06:45.746Z,15.63
2023-03-27T03:09:14.954Z,16.20
2023-03-27T03:11:48.342Z,19.48
2023-03-27T03:14:15.105Z,17.42
2023-03-27T03:16:42.126Z,16.83
2023-03-27T03:19:09.025Z,18.30
2023-03-27T03:21:36.324Z,15.07
2023-03-27T03:24:02.902Z,20.55
2023-03-27T03:26:30.103Z,16.77
2023-03-27T03:29:00.111Z,18.05
2023-03-27T03:31:43.114Z,15.95
2023-03-27T03:34:18.629Z,17.60
2023-03-27T03:36:49.963Z,18.08
2023-03-27T03:39:17.719Z,14.57
2023-03-27T03:41:44.300Z,14.73
2023-03-27T03:44:10.810Z,16.13
2023-03-27T03:46:37.529Z,16.88
2023-03-27T03:49:07.451Z,17.95
2023-03-27T03:51:35.412Z,16.80
2023-03-27T03:54:06.820Z,18.90
2023-03-27T03:56:34.583Z,21.00
2023-03-27T03:59:01.620Z,16.98
2023-03-27T04:01:28.875Z,15.52
2023-03-27T04:03:55.746Z,16.38
2023-03-27T04:06:25.640Z,13.20
2023-03-27T04:08:53.219Z,12.38
2023-03-27T04:11:19.925Z,18.17
2023-03-27T04:13:46.440Z,15.32
2023-03-27T04:16:13.019Z,13.57
2023-03-27T04:18:42.540Z,13.07
2023-03-27T04:21:14.812Z,16.67
2023-03-27T04:23:48.425Z,16.15
2023-03-27T04:26:26.450Z,14.20
2023-03-27T04:28:54.245Z,15.27
2023-03-27T04:31:21.180Z,11.60
2023-03-27T04:33:52.201Z,10.40
2023-03-27T04:36:19.173Z,12.00
2023-03-27T04:38:48.017Z,15.60
2023-03-27T04:41:14.712Z,19.42
2023-03-27T04:43:41.976Z,13.43
2023-03-27T04:46:09.354Z,16.02
2023-03-27T04:48:38.941Z,14.30
2023-03-27T04:51:06.998Z,17.42
2023-03-27T04:53:36.202Z,11.07
2023-03-27T04:56:03.094Z,14.10
2023-03-27T04:58:29.617Z,12.38
2023-03-27T05:00:56.716Z,13.85
2023-03-27T05:03:27.990Z,14.55
2023-03-27T05:05:54.863Z,13.68
2023-03-27T05:08:21.658Z,14.45
2023-03-27T05:10:49.458Z,12.00
2023-03-27T05:13:16.004Z,16.42
2023-03-27T05:15:43.253Z,18.00
2023-03-27T05:18:09.830Z,13.80
2023-03-27T05:20:37.191Z,16.63
2023-03-27T05:23:03.810Z,13.57
2023-03-27T05:25:31.885Z,15.32
2023-03-27T05:27:58.599Z,12.13
2023-03-27T05:30:27.044Z,17.70
2023-03-27T05:32:54.295Z,12.50
2023-03-27T05:35:23.964Z,17.13
2023-03-27T05:37:53.200Z,15.88
2023-03-27T05:40:22.548Z,15.82
2023-03-27T05:42:51.176Z,15.07
2023-03-27T05:45:18.733Z,13.20
2023-03-27T05:47:50.020Z,12.60
2023-03-27T05:50:17.010Z,15.43
2023-03-27T05:52:43.733Z,14.15
2023-03-27T05:55:11.265Z,16.42
2023-03-27T05:57:39.489Z,15.40
2023-03-27T06:00:11.931Z,12.07
2023-03-27T06:02:39.324Z,12.45
2023-03-27T06:05:16.766Z,19.75
2023-03-27T06:07:43.945Z,15.82
2023-03-27T06:10:14.100Z,20.17
2023-03-27T06:12:42.008Z,15.38
2023-03-27T06:15:09.921Z,18.88
2023-03-27T06:17:39.632Z,21.23
2023-03-27T06:20:11.996Z,15.45
2023-03-27T06:22:42.680Z,16.33
2023-03-27T06:25:09.633Z,15.73
2023-03-27T06:27:36.303Z,15.70
2023-03-27T06:30:02.841Z,12.93
2023-03-27T06:32:32.006Z,11.63
2023-03-27T06:34:58.504Z,15.63
2023-03-27T06:37:26.988Z,14.15
2023-03-27T06:39:54.928Z,11.20
2023-03-27T06:42:21.552Z,15.35
2023-03-27T06:44:48.066Z,13.63
2023-03-27T06:47:15.022Z,12.18
2023-03-27T06:49:41.716Z,13.02
2023-03-27T06:52:11.028Z,12.30
2023-03-27T06:54:37.559Z,14.93
2023-03-27T06:57:04.553Z,13.95
2023-03-27T06:59:31.358Z,14.13
2023-03-27T07:01:57.987Z,23.92
2023-03-27T07:04:25.182Z,17.38
2023-03-27T07:06:51.863Z,16.45
2023-03-27T07:09:18.614Z,15.70
2023-03-27T07:11:45.076Z,14.52
2023-03-27T07:14:11.647Z,15.93
2023-03-27T07:16:38.307Z,15.70
2023-03-27T07:19:05.471Z,17.80
2023-03-27T07:21:34.458Z,16.90
2023-03-27T07:24:01.031Z,13.73
2023-03-27T07:26:27.573Z,15.68
2023-03-27T07:28:54.827Z,14.93
2023-03-27T07:31:35.033Z,16.08
2023-03-27T07:34:08.533Z,14.10
2023-03-27T07:36:36.400Z,16.42
2023-03-27T07:39:03.087Z,14.52
2023-03-27T07:41:32.462Z,14.25
2023-03-27T07:43:59.271Z,12.98
2023-03-27T07:46:26.578Z,14.02
2023-03-27T07:48:53.075Z,14.40
2023-03-27T07:51:23.382Z,19.70
2023-03-27T07:53:54.091Z,16.63
2023-03-27T07:56:26.315Z,16.00
2023-03-27T07:58:53.206Z,16.58
2023-03-27T08:01:21.390Z,17.55
2023-03-27T08:03:49.027Z,17.58
2023-03-27T08:06:15.742Z,16.25
2023-03-27T08:08:42.398Z,18.95
2023-03-27T08:11:23.000Z,18.20
2023-03-27T08:13:54.459Z,17.25
2023-03-27T08:16:21.710Z,17.20
2023-03-27T08:18:49.826Z,19.67
2023-03-27T08:21:16.705Z,21.30
2023-03-27T08:23:43.414Z,18.65
2023-03-27T08:26:10.369Z,24.52
2023-03-27T08:28:38.007Z,20.38
2023-03-27T08:31:15.881Z,21.58
2023-03-27T08:33:42.978Z,22.02
2023-03-27T08:36:11.654Z,20.48
2023-03-27T08:38:39.559Z,22.48
2023-03-27T08:41:07.693Z,22.17
2023-03-27T08:43:41.166Z,20.73
2023-03-27T08:46:19.972Z,20.17
2023-03-27T08:49:27.501Z,21.25
2023-03-27T08:51:59.155Z,19.75
2023-03-27T08:54:32.519Z,18.42
2023-03-27T08:57:00.162Z,12.93
2023-03-27T08:59:30.247Z,14.45
2023-03-27T09:02:14.732Z,12.07
2023-03-27T09:04:48.979Z,13.60
2023-03-27T09:07:24.827Z,11.27
2023-03-27T09:10:02.496Z,10.27
2023-03-27T09:12:38.906Z,9.48
2023-03-27T09:15:13.154Z,11.02
2023-03-27T09:17:48.887Z,13.40
2023-03-27T09:20:38.584Z,12.18
2023-03-27T09:23:23.769Z,14.88
2023-03-27T09:25:58.435Z,12.27
2023-03-27T09:28:35.726Z,13.50
2023-03-27T09:31:25.657Z,11.70
2023-03-27T09:33:52.546Z,7.40
2023-03-27T09:36:19.184Z,6.88
2023-03-27T09:38:50.911Z,6.93
2023-03-27T09:41:28.010Z,3.40
2023-03-27T09:44:01.104Z,3.65
2023-03-27T09:46:33.010Z,2.00
2023-03-27T09:49:14.899Z,2.15
2023-03-27T09:51:44.841Z,2.30
2023-03-27T09:54:14.526Z,2.75
2023-03-27T09:56:54.028Z,3.00
2023-03-27T09:59:35.074Z,3.05
2023-03-27T10:02:21.782Z,1.50
2023-03-27T10:04:59.014Z,3.00
2023-03-27T10:07:28.703Z,1.65
2023-03-27T10:10:17.516Z,1.65
2023-03-27T10:12:50.523Z,0.90
2023-03-27T10:15:31.920Z,1.05
2023-03-27T10:17:59.426Z,2.85
2023-03-27T10:20:28.899Z,0.98
2023-03-27T10:23:00.827Z,1.92
2023-03-27T10:25:32.391Z,1.35
2023-03-27T10:28:27.203Z,2.28
2023-03-27T10:31:11.271Z,2.38
2023-03-27T10:33:41.352Z,1.25
2023-03-27T10:36:10.544Z,1.40
2023-03-27T10:38:41.753Z,5.13
2023-03-27T10:41:17.620Z,1.95
2023-03-27T10:43:56.953Z,2.05
2023-03-27T10:46:26.898Z,2.63
2023-03-27T10:48:59.522Z,2.58
2023-03-27T10:51:45.490Z,4.55
2023-03-27T10:54:37.262Z,2.28
2023-03-27T10:57:15.932Z,2.25
2023-03-27T10:59:51.669Z,6.13
2023-03-27T11:02:45.781Z,2.03
2023-03-27T11:05:17.002Z,2.92
2023-03-27T11:07:58.403Z,3.00
2023-03-27T11:10:31.852Z,3.40
2023-03-27T11:13:28.112Z,5.07
2023-03-27T11:16:24.353Z,3.60
2023-03-27T11:19:26.639Z,3.17
2023-03-27T11:21:59.720Z,3.70
2023-03-27T11:24:27.196Z,4.53
2023-03-27T11:27:03.549Z,4.07
2023-03-27T11:29:36.069Z,4.63
2023-03-27T11:32:28.541Z,5.13
2023-03-27T11:35:04.449Z,3.83
2023-03-27T11:37:49.936Z,7.05
2023-03-27T11:42:47.848Z,3.15
2023-03-27T11:45:18.296Z,5.15
2023-03-27T11:48:22.130Z,8.30
2023-03-27T11:51:03.379Z,5.10
2023-03-27T11:53:58.904Z,7.20
2023-03-27T11:56:32.802Z,8.55
2023-03-27T11:59:15.833Z,6.22
2023-03-27T12:02:04.027Z,6.95
2023-03-27T12:04:43.504Z,4.38
2023-03-27T12:07:36.204Z,3.97
2023-03-27T12:10:35.731Z,4.00
2023-03-27T12:13:28.808Z,6.72
2023-03-27T12:16:15.101Z,4.10
2023-03-27T12:19:02.094Z,4.40
2023-03-27T12:21:39.330Z,4.28
2023-03-27T12:24:30.915Z,6.43
2023-03-27T12:27:00.160Z,9.82
2023-03-27T12:29:42.446Z,5.07
2023-03-27T12:32:46.534Z,5.18
2023-03-27T12:35:22.416Z,4.63
2023-03-27T12:38:06.286Z,5.38
2023-03-27T12:40:35.696Z,5.53
2023-03-27T12:43:23.673Z,5.10
2023-03-27T12:46:24.147Z,5.25
2023-03-27T12:49:06.284Z,8.65
2023-03-27T12:51:43.934Z,4.00
2023-03-27T12:54:34.500Z,5.00
2023-03-27T12:57:25.089Z,3.67
2023-03-27T13:00:00.202Z,4.50
2023-03-27T13:07:44.974Z,4.40
2023-03-27T13:10:50.844Z,4.47
2023-03-27T13:13:39.370Z,5.65
2023-03-27T13:16:24.277Z,5.95
2023-03-27T13:19:31.848Z,4.47
2023-03-27T13:22:21.412Z,4.00
2023-03-27T13:25:07.779Z,5.10
2023-03-27T13:27:46.221Z,3.58
2023-03-27T13:30:54.478Z,5.93
2023-03-27T13:33:28.919Z,5.47
2023-03-27T13:35:58.713Z,6.47
2023-03-27T13:38:53.178Z,5.13
2023-03-27T13:41:44.698Z,3.97
2023-03-27T13:44:29.630Z,9.65
2023-03-27T13:47:23.815Z,4.13
2023-03-27T13:50:14.435Z,9.52
2023-03-27T13:52:47.737Z,4.85
2023-03-27T13:55:17.266Z,5.15
2023-03-27T13:58:07.502Z,5.45
2023-03-27T14:00:37.577Z,6.70
2023-03-27T14:03:19.538Z,6.03
2023-03-27T14:06:23.494Z,5.35
2023-03-27T14:09:16.575Z,6.55
2023-03-27T14:12:08.238Z,6.35
2023-03-27T14:14:49.780Z,9.02
2023-03-27T14:17:47.501Z,4.78
2023-03-27T14:20:23.204Z,7.85
2023-03-27T14:22:58.160Z,7.20
2023-03-27T14:28:00.084Z,6.60
2023-03-27T14:30:30.431Z,15.07
2023-03-27T14:33:06.852Z,17.42
2023-03-27T14:35:39.772Z,14.90
2023-03-27T14:38:25.319Z,12.93
2023-03-27T14:41:00.351Z,10.95
2023-03-27T14:43:28.986Z,8.45
2023-03-27T14:46:00.599Z,8.48
2023-03-27T14:48:42.655Z,22.65
2023-03-27T14:51:16.807Z,6.57
2023-03-27T14:53:47.147Z,8.25
2023-03-27T14:56:30.915Z,8.75
2023-03-27T14:59:03.697Z,7.93
2023-03-27T15:01:32.252Z,5.53
2023-03-27T15:04:02.827Z,5.85
2023-03-27T15:06:29.381Z,5.88
2023-03-27T15:08:59.713Z,5.82
2023-03-27T15:11:40.189Z,4.30
2023-03-27T15:14:15.946Z,4.72
2023-03-27T15:16:53.175Z,7.35
2023-03-27T15:19:23.141Z,6.63
2023-03-27T15:21:59.101Z,6.30
2023-03-27T15:24:46.390Z,5.15
2023-03-27T15:27:41.221Z,5.03
2023-03-27T15:30:27.094Z,6.30
2023-03-27T15:32:56.280Z,5.18
2023-03-27T15:35:47.836Z,6.82
2023-03-27T15:38:17.263Z,5.72
2023-03-27T15:40:46.737Z,4.63
2023-03-27T15:43:14.753Z,6.47
2023-03-27T15:46:04.187Z,4.90
2023-03-27T15:48:37.222Z,23.77
2023-03-27T15:51:06.256Z,7.35
2023-03-27T15:53:45.176Z,6.82
2023-03-27T15:56:29.594Z,6.25
2023-03-27T15:59:02.020Z,7.60
2023-03-27T16:01:32.903Z,7.20
2023-03-27T16:04:05.367Z,8.63
2023-03-27T16:06:36.689Z,9.85
2023-03-27T16:09:05.979Z,8.43
2023-03-27T16:11:41.537Z,5.60
2023-03-27T16:14:26.331Z,6.78
2023-03-27T16:17:11.381Z,6.70
2023-03-27T16:19:41.719Z,7.50
2023-03-27T16:22:10.458Z,4.95
2023-03-27T16:24:37.040Z,7.30
2023-03-27T16:27:05.822Z,6.50
2023-03-27T16:29:32.297Z,11.55
2023-03-27T16:31:58.902Z,6.55
2023-03-27T16:34:25.494Z,6.25
2023-03-27T16:36:52.378Z,10.13
2023-03-27T16:39:19.030Z,6.00
2023-03-27T16:41:46.134Z,6.57
2023-03-27T16:44:12.706Z,6.50
2023-03-27T16:46:39.379Z,6.65
2023-03-27T16:49:08.805Z,5.25
2023-03-27T16:51:36.987Z,6.03
2023-03-27T16:54:03.882Z,4.63
2023-03-27T16:56:31.080Z,6.03
2023-03-27T16:58:59.627Z,7.25
2023-03-27T17:01:26.266Z,5.28
2023-03-27T17:03:52.951Z,6.60
2023-03-27T17:06:20.243Z,8.27
2023-03-27T17:08:55.254Z,6.88
2023-03-27T17:11:23.002Z,8.43
2023-03-27T17:13:50.791Z,6.13
2023-03-27T17:16:17.378Z,6.22
2023-03-27T17:18:44.249Z,6.93
2023-03-27T17:21:11.077Z,4.85
2023-03-27T17:23:37.644Z,5.78
2023-03-27T17:26:05.389Z,4.20
2023-03-27T17:28:32.787Z,6.13
2023-03-27T17:31:04.798Z,5.22
2023-03-27T17:33:32.977Z,5.90
2023-03-27T17:35:59.751Z,5.68
2023-03-27T17:38:26.685Z,5.68
2023-03-27T17:40:53.220Z,11.05
2023-03-27T17:43:19.817Z,6.75
2023-03-27T17:45:46.443Z,7.40
2023-03-27T17:48:13.049Z,8.20
2023-03-27T17:50:39.641Z,10.80
2023-03-27T17:53:06.951Z,8.40
2023-03-27T17:55:36.363Z,6.63
2023-03-27T17:58:09.341Z,6.15
2023-03-27T18:00:37.539Z,10.25
2023-03-27T18:03:08.963Z,8.93
2023-03-27T18:05:40.800Z,9.95
2023-03-27T18:08:10.103Z,8.10
2023-03-27T18:10:37.929Z,8.60
2023-03-27T18:13:04.552Z,12.00
2023-03-27T18:15:31.292Z,7.97
2023-03-27T18:18:00.678Z,6.97
2023-03-27T18:20:27.416Z,9.35
2023-03-27T18:22:53.948Z,15.73
2023-03-27T18:25:20.799Z,7.13
2023-03-27T18:27:47.354Z,9.88
2023-03-27T18:30:16.229Z,8.15
2023-03-27T18:32:44.871Z,6.38
2023-03-27T18:35:15.827Z,6.75
2023-03-27T18:37:43.486Z,5.53
2023-03-27T18:40:12.397Z,4.55
2023-03-27T18:42:40.718Z,4.85
2023-03-27T18:45:08.667Z,6.95
2023-03-27T18:47:36.292Z,5.03
2023-03-27T18:50:05.350Z,5.05
2023-03-27T18:52:32.482Z,7.30
2023-03-27T18:54:59.023Z,5.97
2023-03-27T18:57:28.824Z,8.40
2023-03-27T18:59:55.390Z,7.47
2023-03-27T19:02:22.277Z,5.10
2023-03-27T19:04:49.085Z,5.50
2023-03-27T19:07:18.123Z,7.10
2023-03-27T19:09:44.590Z,7.63
2023-03-27T19:12:11.598Z,7.57
2023-03-27T19:14:41.685Z,7.90
2023-03-27T19:17:08.450Z,5.57
2023-03-27T19:19:38.030Z,7.22
2023-03-27T19:22:05.955Z,10.73
2023-03-27T19:24:32.470Z,6.10
2023-03-27T19:26:59.130Z,5.07
2023-03-27T19:29:25.903Z,6.65
2023-03-27T19:31:53.450Z,6.88
2023-03-27T19:34:25.153Z,7.18
2023-03-27T19:36:59.506Z,7.53
2023-03-27T19:39:26.106Z,5.75
2023-03-27T19:41:52.684Z,7.68
2023-03-27T19:44:21.227Z,7.43
2023-03-27T19:46:47.952Z,7.43
2023-03-27T19:49:16.234Z,5.88
2023-03-27T19:51:42.866Z,8.70
2023-03-27T19:54:12.134Z,7.20
2023-03-27T19:56:39.340Z,5.70
2023-03-27T19:59:13.036Z,6.30
2023-03-27T20:01:44.558Z,11.30
2023-03-27T20:04:13.622Z,4.22
2023-03-27T20:06:40.172Z,5.85
2023-03-27T20:09:07.025Z,7.70
2023-03-27T20:11:33.748Z,25.85
2023-03-27T20:14:00.454Z,5.28
2023-03-27T20:16:28.190Z,8.90
2023-03-27T20:19:03.266Z,5.05
2023-03-27T20:21:39.127Z,7.05
2023-03-27T20:24:09.827Z,9.63
2023-03-27T20:26:40.640Z,9.98
2023-03-27T20:29:11.929Z,8.15
2023-03-27T20:31:39.096Z,7.50
2023-03-27T20:34:06.497Z,7.30
2023-03-27T20:36:35.055Z,8.52
2023-03-27T20:39:04.767Z,6.57
2023-03-27T20:41:32.099Z,5.70
2023-03-27T20:43:58.945Z,8.82
2023-03-27T20:46:30.496Z,11.55
2023-03-27T20:48:57.493Z,7.22
2023-03-27T20:51:25.044Z,10.13
2023-03-27T20:53:56.142Z,6.57
2023-03-27T20:56:27.129Z,6.03
2023-03-27T20:58:53.837Z,7.07
2023-03-27T21:01:22.377Z,5.88
2023-03-27T21:03:53.712Z,7.75
2023-03-27T21:06:20.973Z,6.38
2023-03-27T21:08:48.679Z,6.03
2023-03-27T21:11:15.302Z,4.78
2023-03-27T21:13:41.987Z,5.45
2023-03-27T21:16:09.004Z,6.85
2023-03-27T21:18:35.556Z,6.70
2023-03-27T21:21:02.379Z,7.80
2023-03-27T21:23:29.663Z,9.00
2023-03-27T21:25:57.570Z,6.63
2023-03-27T21:28:24.265Z,5.75
2023-03-27T21:30:51.051Z,5.55
2023-03-27T21:33:18.070Z,7.75
2023-03-27T21:35:48.872Z,6.18
2023-03-27T21:38:17.020Z,8.57
2023-03-27T21:40:46.112Z,6.82
2023-03-27T21:43:13.154Z,5.65
2023-03-27T21:45:39.763Z,7.70
2023-03-27T21:48:06.830Z,4.38
2023-03-27T21:50:33.486Z,7.88
2023-03-27T21:53:00.027Z,6.78
2023-03-27T21:55:28.219Z,6.10
2023-03-27T21:57:54.800Z,9.82
2023-03-27T22:00:21.368Z,6.55
2023-03-27T22:02:48.096Z,7.03
2023-03-27T22:05:14.736Z,7.57
2023-03-27T22:07:45.425Z,6.47
2023-03-27T22:10:13.026Z,6.38
2023-03-27T22:12:39.668Z,4.60
2023-03-27T22:15:07.322Z,6.45
2023-03-27T22:17:37.443Z,6.30
2023-03-27T22:20:05.816Z,5.28
2023-03-27T22:22:34.522Z,6.68
2023-03-27T22:25:01.274Z,5.88
2023-03-27T22:27:28.133Z,8.95
2023-03-27T22:29:54.705Z,6.40
2023-03-27T22:32:21.285Z,8.55
2023-03-27T22:34:49.161Z,6.07
2023-03-27T22:37:16.806Z,6.78
2023-03-27T22:39:43.369Z,4.90
2023-03-27T22:42:09.985Z,7.43
2023-03-27T22:44:36.538Z,6.68
2023-03-27T22:47:03.185Z,7.93
2023-03-27T22:49:29.710Z,7.00
2023-03-27T22:51:56.316Z,5.45
2023-03-27T22:54:22.936Z,7.07
2023-03-27T22:56:50.370Z,4.88
2023-03-27T22:59:19.493Z,6.13
2023-03-27T23:01:46.156Z,5.22
2023-03-27T23:04:12.786Z,7.07
2023-03-27T23:06:39.359Z,5.78
2023-03-27T23:09:06.356Z,5.85
2023-03-27T23:11:32.887Z,7.50
2023-03-27T23:13:59.487Z,5.55
2023-03-27T23:16:26.148Z,8.43
2023-03-27T23:18:52.753Z,7.28
2023-03-27T23:21:19.372Z,9.70
2023-03-27T23:23:47.828Z,6.68
2023-03-27T23:26:15.011Z,7.82
2023-03-27T23:28:42.272Z,6.57
2023-03-27T23:31:13.210Z,6.72
2023-03-27T23:33:42.473Z,5.60
2023-03-27T23:36:10.522Z,4.85
2023-03-27T23:38:37.877Z,6.88
2023-03-27T23:41:09.721Z,8.90
2023-03-27T23:43:36.520Z,8.60
2023-03-27T23:46:05.119Z,6.43
2023-03-27T23:48:31.742Z,7.35
2023-03-27T23:50:58.294Z,7.78
2023-03-27T23:53:26.671Z,9.30
2023-03-27T23:55:56.073Z,6.03
2023-03-27T23:58:24.058Z,7.13
